CheckWX is a tool to help pilots better visualize weather data.  It is not intended as a substitute for an official pre-flight weather briefing.

05:46:57 UTC

KEVV METAR
Evansville Regional Airport
Evansville, Indiana, USA
Current

53 mins ago

KEVV 140454Z AUTO 22004KT 10SM CLR M02/M07 A3019 RMK AO2 SLP229 T10171072
Observed
Nov-14 @ 04:54 UTC
Wind
  • 220° at 4 KTS
Visibility
10 SM
Flight Rules
VFR
Cloud Levels
  • Clear skies
Temperature
-2°C / 28°F
Dewpoint
-7°C / 19°F
Humidity
69%
Altimeter
30.19" Hg
Pressure
1022.32 hPa
Previous

2 hours ago

KEVV 140354Z 17008KT 10SM CLR M01/M07 A3018 RMK AO2 SLP223 T10061072
Observed
Nov-14 @ 03:54 UTC
Wind
  • 170° at 8 KTS
Visibility
10 SM
Flight Rules
VFR
Cloud Levels
  • Clear skies
Temperature
-1°C / 30°F
Dewpoint
-7°C / 19°F
Humidity
64%
Altimeter
30.18" Hg
Pressure
1022.02 hPa
Previous

3 hours ago

KEVV 140254Z 17010KT 10SM CLR M01/M08 A3018 RMK AO2 SLP223 T10061078 58009
Observed
Nov-14 @ 02:54 UTC
Wind
  • 170° at 10 KTS
Visibility
10 SM
Flight Rules
VFR
Cloud Levels
  • Clear skies
Temperature
-1°C / 30°F
Dewpoint
-8°C / 18°F
Humidity
59%
Altimeter
30.18" Hg
Pressure
1022.02 hPa